createdAt,value
2019-04-14T00:22:44.632Z,917.94
2019-04-14T00:23:44.183Z,917.89
2019-04-14T00:24:44.595Z,917.84
2019-04-14T00:25:44.163Z,917.82
2019-04-14T00:26:44.481Z,917.86
2019-04-14T00:27:45.274Z,917.87
2019-04-14T00:28:44.737Z,917.94
2019-04-14T00:29:44.118Z,917.84
2019-04-14T00:30:44.792Z,917.86
2019-04-14T00:31:44.096Z,917.87
2019-04-14T00:32:44.393Z,917.89
2019-04-14T00:33:45.291Z,917.92
2019-04-14T00:34:44.231Z,917.93
2019-04-14T00:35:44.908Z,917.91
2019-04-14T00:36:44.043Z,917.91
2019-04-14T00:37:44.501Z,917.94
2019-04-14T00:38:44.173Z,917.91
2019-04-14T00:39:44.366Z,917.92
2019-04-14T00:40:44.001Z,917.96
2019-04-14T00:41:50.452Z,917.94
2019-04-14T00:43:09.229Z,917.94
2019-04-14T00:44:09.924Z,917.96
2019-04-14T00:45:09.143Z,917.97
2019-04-14T00:46:09.952Z,917.99
2019-04-14T00:47:09.320Z,918.00
2019-04-14T00:48:13.933Z,917.99
2019-04-14T00:49:09.874Z,918.03
2019-04-14T00:50:08.721Z,918.09
2019-04-14T00:51:09.156Z,918.08
2019-04-14T00:52:09.953Z,918.06
2019-04-14T00:53:09.819Z,918.00
2019-04-14T00:54:08.884Z,918.03
2019-04-14T00:55:09.725Z,918.05
2019-04-14T00:56:08.650Z,918.09
2019-04-14T00:57:09.423Z,918.10
2019-04-14T00:58:08.635Z,918.11
2019-04-14T00:59:09.260Z,918.11
2019-04-14T01:00:08.608Z,918.12
2019-04-14T01:01:09.050Z,918.11
2019-04-14T01:02:09.806Z,918.13
2019-04-14T01:03:09.120Z,918.18
2019-04-14T01:04:09.758Z,918.18
2019-04-14T01:05:08.931Z,918.15
2019-04-14T01:06:09.638Z,918.21
2019-04-14T01:07:08.755Z,918.24
2019-04-14T01:08:09.621Z,918.25
2019-04-14T01:09:08.629Z,918.27
2019-04-14T01:10:08.499Z,918.21
2019-04-14T01:11:09.539Z,918.25
2019-04-14T01:12:08.472Z,918.26
2019-04-14T01:13:11.108Z,918.27
2019-04-14T01:14:08.457Z,918.29
2019-04-14T01:15:09.296Z,918.29
2019-04-14T01:16:14.165Z,918.26
2019-04-14T01:17:09.518Z,918.27
2019-04-14T01:18:08.415Z,918.29
2019-04-14T01:19:09.038Z,918.32
2019-04-14T01:20:08.404Z,918.28
2019-04-14T01:21:08.913Z,918.26
2019-04-14T01:22:09.473Z,918.28
2019-04-14T01:23:08.516Z,918.33
2019-04-14T01:24:09.567Z,918.31
2019-04-14T01:25:08.631Z,918.25
2019-04-14T01:26:09.325Z,918.29
2019-04-14T01:27:08.313Z,918.28
2019-04-14T01:28:08.973Z,918.26
2019-04-14T01:29:08.298Z,918.30
2019-04-14T01:30:08.819Z,918.22
2019-04-14T01:31:09.749Z,918.25
2019-04-14T01:32:08.802Z,918.24
2019-04-14T01:33:08.252Z,918.26
2019-04-14T01:34:08.459Z,918.26
2019-04-14T01:35:09.539Z,918.27
2019-04-14T01:36:08.221Z,918.25
2019-04-14T01:37:09.303Z,918.28
2019-04-14T01:38:08.197Z,918.30
2019-04-14T01:39:08.970Z,918.30
2019-04-14T01:40:08.175Z,918.31
2019-04-14T01:41:08.563Z,918.34
2019-04-14T01:42:09.428Z,918.33
2019-04-14T01:43:08.200Z,918.32
2019-04-14T01:44:09.085Z,918.28
2019-04-14T01:45:08.123Z,918.33
2019-04-14T01:46:16.114Z,918.33
2019-04-14T01:47:33.452Z,918.31
2019-04-14T01:48:33.054Z,918.32
2019-04-14T01:49:33.279Z,918.38
2019-04-14T01:50:33.034Z,918.30
2019-04-14T01:51:33.138Z,918.33
2019-04-14T01:52:34.144Z,918.35
2019-04-14T01:53:33.638Z,918.34
2019-04-14T01:54:32.993Z,918.39
2019-04-14T01:55:33.145Z,918.41
2019-04-14T01:56:34.099Z,918.45
2019-04-14T01:57:32.964Z,918.44
2019-04-14T01:58:33.910Z,918.50
2019-04-14T01:59:32.938Z,918.50
2019-04-14T02:00:33.730Z,918.47
2019-04-14T02:01:32.921Z,918.48
2019-04-14T02:02:33.579Z,918.48
2019-04-14T02:03:32.903Z,918.44
2019-04-14T02:04:33.413Z,918.49
2019-04-14T02:05:32.880Z,918.53
2019-04-14T02:06:33.362Z,918.52
2019-04-14T02:07:33.772Z,918.54
2019-04-14T02:08:32.923Z,918.53
2019-04-14T02:09:33.594Z,918.50
2019-04-14T02:10:32.884Z,918.46
2019-04-14T02:11:33.442Z,918.54
2019-04-14T02:12:32.819Z,918.59
2019-04-14T02:13:33.193Z,918.59
2019-04-14T02:14:32.791Z,918.61
2019-04-14T02:15:33.075Z,918.64
2019-04-14T02:16:40.189Z,918.61
2019-04-14T02:17:58.796Z,918.63
2019-04-14T02:18:58.616Z,918.64
2019-04-14T02:19:58.860Z,918.60
2019-04-14T02:20:57.941Z,918.59
2019-04-14T02:21:58.459Z,918.61
2019-04-14T02:22:57.523Z,918.58
2019-04-14T02:23:58.334Z,918.58
2019-04-14T02:24:57.505Z,918.61
2019-04-14T02:25:57.976Z,918.63
2019-04-14T02:26:57.528Z,918.63
2019-04-14T02:27:57.973Z,918.68
2019-04-14T02:28:57.478Z,918.64
2019-04-14T02:29:58.284Z,918.68
2019-04-14T02:31:10.222Z,918.67
2019-04-14T02:32:49.866Z,918.67
2019-04-14T02:34:19.201Z,918.69
2019-04-14T02:35:45.026Z,918.69
2019-04-14T02:36:39.785Z,918.74
2019-04-14T02:39:33.990Z,918.76
2019-04-14T02:40:37.058Z,918.66
2019-04-14T02:41:35.752Z,918.71
2019-04-14T02:42:36.785Z,918.72
2019-04-14T02:43:38.071Z,918.73
2019-04-14T02:44:32.063Z,918.72
2019-04-14T02:45:59.821Z,918.73
2019-04-14T02:46:56.663Z,918.74
2019-04-14T02:49:19.444Z,918.75
2019-04-14T02:50:17.595Z,918.69
2019-04-14T02:51:20.237Z,918.68
2019-04-14T02:52:47.301Z,918.71
2019-04-14T02:54:11.794Z,918.68
2019-04-14T02:55:04.360Z,918.71
2019-04-14T02:57:30.387Z,918.74
2019-04-14T03:00:24.010Z,918.76
2019-04-14T03:02:44.632Z,918.81
2019-04-14T03:03:43.102Z,918.73
2019-04-14T03:05:13.334Z,918.79
2019-04-14T03:07:36.269Z,918.74
2019-04-14T03:08:45.645Z,918.79
2019-04-14T03:09:42.007Z,918.78
2019-04-14T03:10:55.703Z,918.79
2019-04-14T03:11:38.135Z,918.79
2019-04-14T03:14:07.970Z,918.81
2019-04-14T03:15:03.499Z,918.80
2019-04-14T03:16:29.788Z,918.82
2019-04-14T03:18:02.315Z,918.81
2019-04-14T03:23:14.949Z,918.87
2019-04-14T03:24:15.834Z,918.86
2019-04-14T03:24:50.397Z,918.88
2019-04-14T03:26:06.406Z,918.88
2019-04-14T03:27:36.058Z,918.87
2019-04-14T03:28:50.826Z,918.85
2019-04-14T03:29:59.942Z,918.86
2019-04-14T03:31:09.912Z,918.85
2019-04-14T03:34:52.088Z,918.76
2019-04-14T03:45:18.518Z,918.68
2019-04-14T03:46:43.321Z,918.69
2019-04-14T03:47:53.142Z,918.68
2019-04-14T03:48:54.062Z,918.68
2019-04-14T03:49:54.710Z,918.71
2019-04-14T03:50:37.072Z,918.70
2019-04-14T03:52:04.102Z,918.71
2019-04-14T03:54:20.494Z,918.71
2019-04-14T03:55:16.265Z,918.75
2019-04-14T03:56:27.031Z,918.75
2019-04-14T03:57:28.132Z,918.75
2019-04-14T03:58:27.142Z,918.77
2019-04-14T03:59:26.359Z,918.80
2019-04-14T04:00:27.074Z,918.80
2019-04-14T04:01:26.318Z,918.77
2019-04-14T04:02:27.201Z,918.83
2019-04-14T04:03:26.304Z,918.85
2019-04-14T04:04:27.480Z,918.82
2019-04-14T04:05:26.279Z,918.85
2019-04-14T04:06:27.088Z,918.85
2019-04-14T04:07:26.259Z,918.83
2019-04-14T04:08:26.786Z,918.81
2019-04-14T04:09:26.239Z,918.78
2019-04-14T04:10:27.105Z,918.78
2019-04-14T04:11:26.221Z,918.76
2019-04-14T04:12:27.153Z,918.78
2019-04-14T04:13:26.199Z,918.75
2019-04-14T04:14:27.094Z,918.75
2019-04-14T04:15:26.181Z,918.79
2019-04-14T04:16:26.915Z,918.78
2019-04-14T04:17:27.513Z,918.83
2019-04-14T04:18:26.591Z,918.88
2019-04-14T04:19:27.219Z,918.87
2019-04-14T04:20:26.420Z,918.85
2019-04-14T04:21:26.964Z,918.90
2019-04-14T04:22:26.128Z,918.90
2019-04-14T04:23:27.112Z,918.88
2019-04-14T04:24:27.806Z,918.87
2019-04-14T04:25:26.857Z,918.89
2019-04-14T04:26:26.070Z,918.84
2019-04-14T04:27:26.568Z,918.85
2019-04-14T04:28:26.052Z,918.86
2019-04-14T04:29:26.603Z,918.81
2019-04-14T04:30:26.030Z,918.76
2019-04-14T04:31:26.412Z,918.71
2019-04-14T04:32:26.009Z,918.72
2019-04-14T04:33:26.407Z,918.70
2019-04-14T04:34:27.294Z,918.71
2019-04-14T04:35:26.065Z,918.69
2019-04-14T04:36:27.027Z,918.68
2019-04-14T04:37:25.956Z,918.65
2019-04-14T04:38:26.912Z,918.66
2019-04-14T04:39:25.932Z,918.66
2019-04-14T04:40:26.840Z,918.69
2019-04-14T04:41:25.911Z,918.69
2019-04-14T04:42:26.529Z,918.71
2019-04-14T04:43:25.885Z,918.71
2019-04-14T04:44:26.946Z,918.71
2019-04-14T04:45:25.870Z,918.70
2019-04-14T04:46:26.589Z,918.73
2019-04-14T04:47:25.848Z,918.73
2019-04-14T04:48:26.391Z,918.71
2019-04-14T04:49:28.165Z,918.70
2019-04-14T04:50:26.060Z,918.72
2019-04-14T04:51:26.736Z,918.76
2019-04-14T04:52:25.947Z,918.83
2019-04-14T04:53:26.708Z,918.78
2019-04-14T04:54:25.784Z,918.77
2019-04-14T04:55:26.289Z,918.77
2019-04-14T04:56:25.754Z,918.82
2019-04-14T04:57:26.431Z,918.82
2019-04-14T04:58:26.269Z,918.83
2019-04-14T04:59:25.716Z,918.82
2019-04-14T05:00:26.625Z,918.83
2019-04-14T05:01:25.700Z,918.84
2019-04-14T05:02:26.637Z,918.85
2019-04-14T05:03:25.678Z,918.85
2019-04-14T05:04:26.600Z,918.85
2019-04-14T05:05:25.657Z,918.84
2019-04-14T05:06:26.634Z,918.82
2019-04-14T05:07:25.637Z,918.82
2019-04-14T05:08:26.296Z,918.81
2019-04-14T05:09:25.618Z,918.82
2019-04-14T05:10:26.339Z,918.88
2019-04-14T05:11:25.596Z,918.88
2019-04-14T05:12:26.295Z,918.84
2019-04-14T05:13:25.575Z,918.83
2019-04-14T05:14:26.200Z,918.91
2019-04-14T05:15:25.554Z,918.90
2019-04-14T05:16:25.996Z,918.91
2019-04-14T05:17:25.644Z,918.89
2019-04-14T05:18:26.678Z,918.87
2019-04-14T05:19:30.350Z,918.84
2019-04-14T05:20:50.993Z,918.83
2019-04-14T05:21:51.645Z,918.87
2019-04-14T05:22:50.804Z,918.83
2019-04-14T05:23:50.285Z,918.79
2019-04-14T05:24:50.765Z,918.77
2019-04-14T05:25:51.599Z,918.72
2019-04-14T05:26:50.611Z,918.69
2019-04-14T05:27:51.528Z,918.67
2019-04-14T05:28:50.687Z,918.59
2019-04-14T05:29:51.470Z,918.56
2019-04-14T05:30:50.425Z,918.51
2019-04-14T05:31:51.150Z,918.47
2019-04-14T05:32:50.225Z,918.45
2019-04-14T05:33:51.151Z,918.45
2019-04-14T05:34:50.264Z,918.45
2019-04-14T05:35:50.961Z,918.41
2019-04-14T05:36:50.157Z,918.51
2019-04-14T05:37:50.738Z,918.47
2019-04-14T05:38:50.138Z,918.41
2019-04-14T05:39:50.499Z,918.46
2019-04-14T05:40:50.121Z,918.51
2019-04-14T05:42:03.830Z,918.53
2019-04-14T05:43:28.389Z,918.50
2019-04-14T05:44:40.386Z,918.48
2019-04-14T05:45:39.855Z,918.43
2019-04-14T05:46:40.347Z,918.37
2019-04-14T05:47:39.682Z,918.33
2019-04-14T05:48:40.384Z,918.31
2019-04-14T05:49:45.530Z,918.25
2019-04-14T05:51:04.569Z,918.17
2019-04-14T05:52:05.584Z,918.15
2019-04-14T05:53:04.543Z,918.12
2019-04-14T05:54:05.565Z,918.06
2019-04-14T05:55:04.555Z,917.99
2019-04-14T05:56:05.637Z,917.91
2019-04-14T05:57:04.517Z,917.81
2019-04-14T05:58:05.603Z,917.81
2019-04-14T05:59:04.490Z,917.78
2019-04-14T06:00:04.469Z,917.76
2019-04-14T06:01:04.800Z,917.78
2019-04-14T06:02:04.878Z,917.74
2019-04-14T06:03:04.448Z,917.69
2019-04-14T06:04:04.663Z,917.68
2019-04-14T06:05:06.246Z,917.66
2019-04-14T06:06:04.413Z,917.65
2019-04-14T06:07:04.450Z,917.68
2019-04-14T06:08:04.387Z,917.63
2019-04-14T06:09:04.377Z,917.62
2019-04-14T06:10:04.371Z,917.56
2019-04-14T06:11:04.356Z,917.51
2019-04-14T06:12:04.345Z,917.49
2019-04-14T06:13:04.438Z,917.44
2019-04-14T06:14:04.324Z,917.44
2019-04-14T06:15:04.313Z,917.42
2019-04-14T06:16:04.307Z,917.46
2019-04-14T06:17:04.290Z,917.46
2019-04-14T06:18:04.589Z,917.40
2019-04-14T06:19:04.270Z,917.42
2019-04-14T06:20:04.262Z,917.42
2019-04-14T06:21:04.254Z,917.40
2019-04-14T06:22:04.240Z,917.38
2019-04-14T06:23:04.230Z,917.40
2019-04-14T06:24:04.266Z,917.37
2019-04-14T06:25:04.227Z,917.31
2019-04-14T06:26:04.202Z,917.29
2019-04-14T06:27:04.187Z,917.27
2019-04-14T06:28:04.174Z,917.24
2019-04-14T06:29:04.168Z,917.25
2019-04-14T06:30:04.215Z,917.22
2019-04-14T06:31:04.152Z,917.19
2019-04-14T06:32:04.136Z,917.17
2019-04-14T06:33:04.125Z,917.17
2019-04-14T06:34:04.114Z,917.18
2019-04-14T06:35:04.103Z,917.15
2019-04-14T06:36:04.196Z,917.13
2019-04-14T06:37:04.089Z,917.15
2019-04-14T06:38:05.829Z,917.14
2019-04-14T06:39:04.071Z,917.19
2019-04-14T06:40:04.057Z,917.17
2019-04-14T06:41:04.192Z,917.12
2019-04-14T06:42:04.031Z,917.17
2019-04-14T06:43:04.017Z,917.16
2019-04-14T06:44:04.010Z,917.18
2019-04-14T06:45:04.003Z,917.18
2019-04-14T06:46:04.000Z,917.11
2019-04-14T06:47:04.029Z,917.13
2019-04-14T06:48:03.978Z,917.16
2019-04-14T06:49:03.960Z,917.15
2019-04-14T06:50:03.949Z,917.18
2019-04-14T06:51:03.942Z,917.17
2019-04-14T06:52:03.927Z,917.20
2019-04-14T06:53:03.963Z,917.15
2019-04-14T06:54:03.909Z,917.21
2019-04-14T06:55:03.899Z,917.17
2019-04-14T06:56:03.887Z,917.17
2019-04-14T06:57:03.874Z,917.25
2019-04-14T06:58:03.869Z,917.22
2019-04-14T06:59:04.012Z,917.23
2019-04-14T07:00:03.847Z,917.26
2019-04-14T07:01:03.836Z,917.32
2019-04-14T07:02:03.823Z,917.35
2019-04-14T07:03:03.815Z,917.30
2019-04-14T07:04:03.856Z,917.31
2019-04-14T07:05:03.896Z,917.25
2019-04-14T07:06:03.783Z,917.30
2019-04-14T07:07:03.776Z,917.28
2019-04-14T07:08:03.767Z,917.28
2019-04-14T07:09:03.750Z,917.29
2019-04-14T07:10:03.844Z,917.23
2019-04-14T07:11:03.735Z,917.21
2019-04-14T07:12:03.839Z,917.22
2019-04-14T07:13:03.717Z,917.20
2019-04-14T07:14:03.737Z,917.15
2019-04-14T07:15:03.694Z,917.14
2019-04-14T07:16:03.783Z,917.17
2019-04-14T07:17:03.674Z,917.13
2019-04-14T07:18:03.661Z,917.13
2019-04-14T07:19:03.656Z,917.11
2019-04-14T07:20:03.651Z,917.11
2019-04-14T07:21:03.631Z,917.09
2019-04-14T07:22:03.668Z,917.12
2019-04-14T07:23:03.631Z,917.13
2019-04-14T07:24:03.597Z,917.11
2019-04-14T07:25:03.589Z,917.14
2019-04-14T07:26:03.578Z,917.11
2019-04-14T07:27:03.564Z,917.16
2019-04-14T07:28:03.606Z,917.14
2019-04-14T07:29:03.545Z,917.06
2019-04-14T07:30:03.539Z,917.07
2019-04-14T07:31:03.524Z,917.05
2019-04-14T07:32:03.515Z,917.08
2019-04-14T07:33:03.503Z,917.06
2019-04-14T07:34:03.647Z,916.99
2019-04-14T07:35:03.483Z,917.05
2019-04-14T07:36:03.474Z,917.05
2019-04-14T07:37:03.462Z,917.06
2019-04-14T07:38:03.455Z,917.09
2019-04-14T07:39:03.442Z,917.11
2019-04-14T07:40:03.483Z,917.04
2019-04-14T07:41:03.420Z,917.01
2019-04-14T07:42:03.409Z,917.01
2019-04-14T07:43:03.400Z,917.00
2019-04-14T07:44:03.387Z,917.05
2019-04-14T07:45:03.380Z,916.98
2019-04-14T07:46:03.471Z,917.04
2019-04-14T07:47:03.357Z,917.03
2019-04-14T07:48:03.350Z,917.01
2019-04-14T07:49:03.340Z,917.10
2019-04-14T07:50:14.144Z,917.06
2019-04-14T07:51:28.283Z,917.07
2019-04-14T07:52:28.270Z,917.07
2019-04-14T07:53:28.260Z,917.01
2019-04-14T07:54:56.168Z,917.02
2019-04-14T07:55:56.156Z,917.01
2019-04-14T07:56:56.207Z,917.01
2019-04-14T07:57:56.144Z,917.04
2019-04-14T07:58:56.133Z,917.02
2019-04-14T07:59:56.118Z,916.99
2019-04-14T08:00:56.110Z,917.01
2019-04-14T08:01:56.146Z,916.99
2019-04-14T08:02:56.086Z,917.01
2019-04-14T08:03:56.076Z,917.03
2019-04-14T08:04:56.063Z,917.02
2019-04-14T08:05:56.050Z,916.97
2019-04-14T08:06:56.039Z,917.03
2019-04-14T08:07:56.083Z,917.03
2019-04-14T08:08:56.020Z,917.09
2019-04-14T08:09:56.010Z,917.07
2019-04-14T08:10:56.000Z,917.08
2019-04-14T08:11:55.988Z,917.12
2019-04-14T08:12:55.981Z,917.06
2019-04-14T08:13:56.082Z,917.03
2019-04-14T08:14:55.960Z,917.04
2019-04-14T08:16:23.871Z,917.04
2019-04-14T08:17:23.863Z,917.02
2019-04-14T08:18:23.850Z,917.00
2019-04-14T08:19:23.898Z,917.02
2019-04-14T08:20:27.628Z,917.00
2019-04-14T08:21:23.820Z,917.04
2019-04-14T08:22:23.804Z,917.02
2019-04-14T08:23:23.803Z,917.01
2019-04-14T08:24:23.937Z,917.04
2019-04-14T08:25:23.778Z,917.08
2019-04-14T08:26:23.767Z,917.04
2019-04-14T08:27:23.758Z,917.02
2019-04-14T08:28:23.747Z,917.07
2019-04-14T08:29:23.742Z,917.07
2019-04-14T08:30:23.777Z,917.08
2019-04-14T08:31:23.717Z,917.10
2019-04-14T08:32:23.709Z,917.09
2019-04-14T08:33:23.697Z,917.07
2019-04-14T08:34:23.683Z,917.09
2019-04-14T08:35:23.672Z,917.08
2019-04-14T08:36:23.714Z,917.08
2019-04-14T08:37:23.651Z,917.08
2019-04-14T08:38:23.650Z,917.10
2019-04-14T08:39:23.633Z,917.07
2019-04-14T08:40:23.619Z,917.10
2019-04-14T08:41:23.616Z,917.10
2019-04-14T08:42:23.754Z,917.13
2019-04-14T08:43:23.594Z,917.11
2019-04-14T08:44:23.583Z,917.12
2019-04-14T08:45:23.576Z,917.11
2019-04-14T08:46:23.560Z,917.11
2019-04-14T08:47:23.553Z,917.13
2019-04-14T08:48:23.593Z,917.12
2019-04-14T08:49:23.536Z,917.15
2019-04-14T08:50:23.517Z,917.14
2019-04-14T08:51:23.514Z,917.11
2019-04-14T08:52:24.235Z,917.13
2019-04-14T08:53:23.492Z,917.11
2019-04-14T08:54:23.531Z,917.10
2019-04-14T08:55:23.471Z,917.12
2019-04-14T08:56:23.460Z,917.07
2019-04-14T08:57:23.448Z,917.02
2019-04-14T08:58:23.437Z,916.92
2019-04-14T08:59:23.426Z,916.89
2019-04-14T09:00:23.566Z,916.89
2019-04-14T09:01:23.414Z,916.90
2019-04-14T09:02:23.398Z,916.84
2019-04-14T09:03:23.390Z,916.83
2019-04-14T09:04:23.379Z,916.85
2019-04-14T09:05:23.368Z,916.83
2019-04-14T09:06:23.456Z,916.80
2019-04-14T09:07:23.352Z,916.78
2019-04-14T09:08:23.338Z,916.73
2019-04-14T09:09:23.323Z,916.70
2019-04-14T09:10:23.313Z,916.72
2019-04-14T09:11:23.307Z,916.69
2019-04-14T09:12:23.390Z,916.66
2019-04-14T09:13:23.283Z,916.62
2019-04-14T09:14:23.272Z,916.63
2019-04-14T09:15:23.263Z,916.56
2019-04-14T09:16:23.250Z,916.58
2019-04-14T09:17:23.237Z,916.52
2019-04-14T09:18:23.382Z,916.53
2019-04-14T09:19:23.223Z,916.49
2019-04-14T09:20:23.213Z,916.45
2019-04-14T09:21:23.201Z,916.42
2019-04-14T09:22:23.192Z,916.45
2019-04-14T09:23:23.180Z,916.45
2019-04-14T09:24:23.271Z,916.35
2019-04-14T09:25:23.161Z,916.34
2019-04-14T09:26:23.146Z,916.31
2019-04-14T09:27:23.141Z,916.29
2019-04-14T09:28:23.123Z,916.31
2019-04-14T09:29:23.114Z,916.27
2019-04-14T09:30:23.151Z,916.26
2019-04-14T09:31:23.095Z,916.26
2019-04-14T09:32:23.085Z,916.25
2019-04-14T09:33:23.073Z,916.27
2019-04-14T09:34:23.063Z,916.23
2019-04-14T09:35:23.053Z,916.21
2019-04-14T09:36:23.195Z,916.19
2019-04-14T09:37:23.032Z,916.13
2019-04-14T09:38:23.026Z,916.17
2019-04-14T09:39:23.014Z,916.15
2019-04-14T09:40:23.003Z,916.18
2019-04-14T09:41:22.987Z,916.13
2019-04-14T09:42:23.031Z,916.14
2019-04-14T09:43:22.973Z,916.15
2019-04-14T09:44:22.963Z,916.17
2019-04-14T09:45:22.947Z,916.19
2019-04-14T09:46:22.937Z,916.16
2019-04-14T09:47:22.931Z,916.14
2019-04-14T09:48:22.964Z,916.07
2019-04-14T09:49:22.908Z,916.10
2019-04-14T09:50:22.897Z,916.10
2019-04-14T09:51:22.885Z,916.10
2019-04-14T09:52:22.879Z,916.04
2019-04-14T09:53:22.866Z,916.07
2019-04-14T09:54:23.006Z,916.06
2019-04-14T09:55:23.688Z,916.00
2019-04-14T09:56:22.838Z,916.01
2019-04-14T09:57:22.825Z,915.96
2019-04-14T09:58:22.820Z,915.93
2019-04-14T09:59:22.804Z,915.96
2019-04-14T10:00:22.844Z,915.93
2019-04-14T10:01:22.789Z,915.87
2019-04-14T10:02:22.778Z,915.90
2019-04-14T10:03:22.764Z,915.85
2019-04-14T10:04:22.761Z,915.83
2019-04-14T10:05:22.746Z,915.76
2019-04-14T10:06:22.783Z,915.76
2019-04-14T10:07:22.724Z,915.73
2019-04-14T10:08:22.712Z,915.70
2019-04-14T10:09:22.705Z,915.62
2019-04-14T10:10:22.691Z,915.63
2019-04-14T10:11:22.687Z,915.60
2019-04-14T10:12:22.822Z,915.59
2019-04-14T10:13:22.662Z,915.56
2019-04-14T10:14:22.654Z,915.54
2019-04-14T10:15:22.640Z,915.57
2019-04-14T10:16:22.636Z,915.53
2019-04-14T10:17:22.617Z,915.49
2019-04-14T10:18:22.659Z,915.51
2019-04-14T10:19:22.604Z,915.50
2019-04-14T10:20:22.588Z,915.47
2019-04-14T10:21:22.583Z,915.52
2019-04-14T10:22:33.349Z,915.54
2019-04-14T10:23:47.420Z,915.53
2019-04-14T10:24:47.410Z,915.54
2019-04-14T10:25:47.399Z,915.53
2019-04-14T10:26:47.391Z,915.49
2019-04-14T10:27:47.380Z,915.51
2019-04-14T10:28:47.520Z,915.49
2019-04-14T10:29:47.359Z,915.54
2019-04-14T10:30:47.352Z,915.54
2019-04-14T10:31:49.959Z,915.49
2019-04-14T10:32:47.324Z,915.52
2019-04-14T10:33:47.315Z,915.52
2019-04-14T10:34:47.365Z,915.47
2019-04-14T10:35:47.300Z,915.45
2019-04-14T10:36:47.284Z,915.39
2019-04-14T10:37:47.268Z,915.40
2019-04-14T10:38:47.263Z,915.37
2019-04-14T10:39:47.248Z,915.34
2019-04-14T10:40:47.293Z,915.31
2019-04-14T10:41:47.231Z,915.32
2019-04-14T10:42:47.219Z,915.29
2019-04-14T10:43:47.214Z,915.28
2019-04-14T10:44:47.196Z,915.27
2019-04-14T10:45:47.191Z,915.27
2019-04-14T10:46:47.326Z,915.28
2019-04-14T10:47:47.164Z,915.27
2019-04-14T10:48:47.156Z,915.24
2019-04-14T10:49:47.152Z,915.30
2019-04-14T10:50:47.134Z,915.28
2019-04-14T10:51:47.127Z,915.27
2019-04-14T10:52:47.215Z,915.27
2019-04-14T10:53:47.111Z,915.28
2019-04-14T10:54:47.093Z,915.26
2019-04-14T10:55:47.083Z,915.26
2019-04-14T10:56:47.071Z,915.27
2019-04-14T10:57:47.107Z,915.22
2019-04-14T10:58:47.050Z,915.20
2019-04-14T10:59:47.038Z,915.25
2019-04-14T11:00:47.031Z,915.22
2019-04-14T11:01:47.016Z,915.21
2019-04-14T11:02:47.006Z,915.19
2019-04-14T11:03:47.149Z,915.19
2019-04-14T11:04:46.994Z,915.20
2019-04-14T11:05:46.978Z,915.19
2019-04-14T11:06:46.964Z,915.20
2019-04-14T11:07:46.958Z,915.16
2019-04-14T11:08:46.938Z,915.17
2019-04-14T11:09:46.987Z,915.14
2019-04-14T11:10:46.920Z,915.11
2019-04-14T11:11:46.911Z,915.10
2019-04-14T11:12:46.899Z,915.09
2019-04-14T11:13:46.894Z,915.04
2019-04-14T11:14:46.881Z,915.06
2019-04-14T11:15:46.925Z,915.06
2019-04-14T11:16:46.857Z,915.06
2019-04-14T11:17:46.847Z,915.05
2019-04-14T11:18:46.837Z,915.04
2019-04-14T11:19:46.826Z,915.03
2019-04-14T11:20:46.864Z,915.07
2019-04-14T11:21:46.804Z,915.09
2019-04-14T11:22:46.798Z,915.10
2019-04-14T11:23:46.782Z,915.07
2019-04-14T11:24:46.776Z,915.07
2019-04-14T11:25:46.914Z,915.08
2019-04-14T11:26:46.753Z,915.10
2019-04-14T11:27:46.739Z,915.08
2019-04-14T11:28:46.735Z,915.11
2019-04-14T11:29:46.723Z,915.07
2019-04-14T11:30:46.708Z,915.06
2019-04-14T11:31:46.744Z,915.07
2019-04-14T11:32:46.688Z,915.09
2019-04-14T11:33:46.678Z,915.10
2019-04-14T11:34:46.664Z,915.08
2019-04-14T11:35:46.659Z,915.09
2019-04-14T11:36:46.648Z,915.08
2019-04-14T11:37:46.684Z,915.08
2019-04-14T11:38:46.625Z,915.11
2019-04-14T11:39:46.613Z,915.08
2019-04-14T11:40:46.599Z,915.10
2019-04-14T11:41:46.587Z,915.11
2019-04-14T11:42:52.196Z,915.06
2019-04-14T11:43:47.811Z,915.12
2019-04-14T11:44:46.561Z,915.09
2019-04-14T11:45:46.559Z,915.06
2019-04-14T11:46:46.535Z,915.10
2019-04-14T11:47:46.528Z,915.12
2019-04-14T11:48:46.519Z,915.12
2019-04-14T11:49:46.564Z,915.10
2019-04-14T11:50:46.495Z,915.11
2019-04-14T11:51:55.051Z,915.14
2019-04-14T11:53:11.294Z,915.11
2019-04-14T11:54:11.283Z,915.10
2019-04-14T11:55:11.363Z,915.09
2019-04-14T11:56:11.256Z,915.06
2019-04-14T11:57:11.243Z,915.07
2019-04-14T11:58:11.239Z,915.05
2019-04-14T11:59:11.221Z,915.08
2019-04-14T12:00:11.215Z,915.05
2019-04-14T12:01:11.346Z,915.07
2019-04-14T12:02:11.191Z,915.07
2019-04-14T12:03:11.189Z,915.07
2019-04-14T12:04:11.175Z,915.06
2019-04-14T12:05:11.162Z,915.01
2019-04-14T12:06:11.150Z,914.98
2019-04-14T12:07:11.188Z,914.98
2019-04-14T12:08:11.128Z,914.98
2019-04-14T12:09:11.113Z,915.03
2019-04-14T12:10:11.110Z,915.01
2019-04-14T12:11:11.091Z,914.97
2019-04-14T12:12:11.185Z,914.97
2019-04-14T12:13:11.075Z,915.02
2019-04-14T12:14:11.067Z,915.02
2019-04-14T12:15:15.976Z,915.01
2019-04-14T12:16:11.043Z,915.04
2019-04-14T12:17:11.184Z,915.06
2019-04-14T12:18:11.025Z,915.06
2019-04-14T12:19:11.013Z,915.05
2019-04-14T12:20:11.001Z,915.03
2019-04-14T12:21:10.991Z,915.01
2019-04-14T12:22:10.979Z,914.97
2019-04-14T12:23:11.023Z,915.01
2019-04-14T12:24:10.962Z,914.97
2019-04-14T12:25:10.946Z,914.94
2019-04-14T12:26:10.943Z,914.95
2019-04-14T12:27:10.930Z,914.97
2019-04-14T12:28:11.384Z,914.93
2019-04-14T12:29:11.809Z,914.91
2019-04-14T12:30:11.133Z,914.93
2019-04-14T12:31:10.971Z,914.90
2019-04-14T12:32:10.887Z,914.90
2019-04-14T12:33:10.874Z,914.84
2019-04-14T12:34:10.855Z,914.88
2019-04-14T12:35:10.995Z,914.93
2019-04-14T12:36:10.839Z,914.85
2019-04-14T12:37:10.829Z,914.89
2019-04-14T12:38:10.813Z,914.90
2019-04-14T12:39:10.801Z,914.88
2019-04-14T12:40:10.799Z,914.88
2019-04-14T12:41:10.828Z,914.91
2019-04-14T12:42:10.773Z,914.88
2019-04-14T12:43:10.762Z,914.88
2019-04-14T12:44:10.750Z,914.87
2019-04-14T12:45:10.737Z,914.85
2019-04-14T12:46:10.827Z,914.79
2019-04-14T12:47:10.717Z,914.82
2019-04-14T12:48:10.713Z,914.82
2019-04-14T12:49:10.742Z,914.80
2019-04-14T12:50:10.685Z,914.78
2019-04-14T12:51:10.675Z,914.75
2019-04-14T12:52:20.624Z,914.69
2019-04-14T12:53:35.476Z,914.72
2019-04-14T12:54:35.458Z,914.72
2019-04-14T12:55:35.460Z,914.70
2019-04-14T12:56:35.436Z,914.70
2019-04-14T12:57:35.477Z,914.68
2019-04-14T12:58:35.415Z,914.69
2019-04-14T12:59:35.402Z,914.68
2019-04-14T13:00:35.400Z,914.72
2019-04-14T13:01:35.381Z,914.71
2019-04-14T13:02:38.485Z,914.75
2019-04-14T13:03:37.627Z,914.72
2019-04-14T13:04:35.405Z,914.68
2019-04-14T13:06:00.408Z,914.65
2019-04-14T13:07:00.144Z,914.66
2019-04-14T13:08:00.228Z,914.65
2019-04-14T13:09:00.122Z,914.61
2019-04-14T13:10:00.107Z,914.60
2019-04-14T13:11:00.097Z,914.55
2019-04-14T13:12:00.093Z,914.53
2019-04-14T13:13:00.077Z,914.56
2019-04-14T13:14:00.171Z,914.50
2019-04-14T13:15:02.748Z,914.49
2019-04-14T13:16:00.048Z,914.48
2019-04-14T13:17:00.038Z,914.43
2019-04-14T13:18:00.032Z,914.46
2019-04-14T13:19:00.021Z,914.42
2019-04-14T13:20:00.160Z,914.45
2019-04-14T13:20:59.992Z,914.41
2019-04-14T13:21:59.985Z,914.38
2019-04-14T13:22:59.976Z,914.40
2019-04-14T13:23:59.972Z,914.36
2019-04-14T13:24:59.955Z,914.36
2019-04-14T13:26:00.046Z,914.36
2019-04-14T13:26:59.936Z,914.36
2019-04-14T13:27:59.927Z,914.34
2019-04-14T13:28:59.912Z,914.37
2019-04-14T13:29:59.900Z,914.38
2019-04-14T13:30:59.996Z,914.37